Temp: 12.3°C   Baro: 997.0mb
  Wind: 8.1mph   Dir: SW (225°)
  Rain: 4.6mm (0.0mm/hr)
  Solar: 35W/m2  Hum: 88%
 
Bath Spa Weather Historical Data
Daily Summary for October 31, 2019 Units:  English    Metric   Both
Next Day »
Daily Weekly Monthly Yearly Custom
  High: Low: Average:
Temperature: 50.5 °F 44.4 °F 47.7 °F
Dew Point: 49.1 °F 42.8 °F 45.7 °F
Humidity: 95% 91% 93%
Wind Speed: 10.1mph 0mph 3mph
Wind Gust: 14mph - -
Wind direction- - ESE
Pressure: 30.1 in 29.8 in -
Precipitation: 0.19 in    
Historical Graphs
 
 
Tabular Data for October 31, 2019
Time Temperature Dew Point Pressure Wind direction Wind Speed Wind Gust Humidity Rainfall Rate (Hourly) solar
00:00 46 °F 43.5 °F 30.1 in ESE 0.9 mph 8 mph 91% 0.03 in 0.00 W/m2
00:05 45.9 °F 43.3 °F 30.1 in ENE 6 mph 9 mph 91% 0.02 in 0.00 W/m2
00:10 45.9 °F 43.3 °F 30.1 in ENE 2.9 mph 10 mph 91% 0.03 in 0.00 W/m2
00:15 46 °F 43.5 °F 30.1 in East 6 mph 13 mph 91% 0.03 in 0.00 W/m2
00:20 46 °F 43.5 °F 30.1 in SE 6 mph 6 mph 91% 0.02 in 0.00 W/m2
00:25 45.9 °F 43.7 °F 30.1 in ENE 8.9 mph 9 mph 92% 0.03 in 0.00 W/m2
00:30 45.9 °F 43.7 °F 30.1 in ENE 6 mph 9 mph 92% 0.03 in 0.00 W/m2
00:35 45.9 °F 43.7 °F 30.1 in East 0.9 mph 10 mph 92% 0.02 in 0.00 W/m2
00:40 45.9 °F 43.7 °F 30.1 in ENE 8.1 mph 12 mph 92% 0.02 in 0.00 W/m2
00:45 45.9 °F 43.7 °F 30.1 in East 2 mph 10 mph 92% 0.02 in 0.00 W/m2
00:50 45.9 °F 43.7 °F 30.1 in Calm   10 mph 92% 0.02 in 0.00 W/m2
00:55 45.9 °F 43.7 °F 30.1 in SE 2 mph 8 mph 92% 0.02 in 0.00 W/m2
01:00 45.9 °F 43.7 °F 30.1 in East 6.9 mph 8 mph 92% 0.02 in 0.00 W/m2
01:05 45.9 °F 43.7 °F 30.1 in ENE 0.9 mph 8 mph 92% 0.03 in 0.00 W/m2
01:10 45.9 °F 43.7 °F 30.1 in East 4 mph 7 mph 92% 0.02 in 0.00 W/m2
01:15 45.9 °F 43.7 °F 30.1 in NNE 6.9 mph 8 mph 92% 0.02 in 0.00 W/m2
01:20 45.9 °F 43.7 °F 30.1 in ENE 2.9 mph 7 mph 92% 0.03 in 0.00 W/m2
01:25 45.9 °F 43.7 °F 30.1 in East 4.9 mph 8 mph 92% 0.02 in 0.00 W/m2
01:30 45.9 °F 43.7 °F 30.1 in ESE 2.9 mph 10 mph 92% 0.02 in 0.00 W/m2
01:35 45.9 °F 43.7 °F 30.1 in NE 2 mph 14 mph 92% 0.02 in 0.00 W/m2
01:40 45.9 °F 43.7 °F 30.1 in ESE 6.9 mph 8 mph 92% 0.03 in 0.00 W/m2
01:45 45.9 °F 43.7 °F 30.1 in ESE 4.9 mph 9 mph 92% 0.03 in 0.00 W/m2
01:50 45.9 °F 43.7 °F 30.1 in ENE 2 mph 9 mph 92% 0.02 in 0.00 W/m2
01:55 45.9 °F 43.7 °F 30.1 in ESE 4 mph 7 mph 92% 0.03 in 0.00 W/m2
02:00 45.9 °F 43.7 °F 30.1 in ENE 2.9 mph 11 mph 92% 0.03 in 0.00 W/m2
02:05 45.9 °F 43.7 °F 30.1 in ESE 2.9 mph 8 mph 92% 0.03 in 0.00 W/m2
02:10 45.9 °F 43.9 °F 30.1 in SE 2 mph 6 mph 93% 0.04 in 0.00 W/m2
02:15 45.9 °F 43.9 °F 30.1 in Calm   3 mph 93% 0.04 in 0.00 W/m2
02:20 45.7 °F 43.7 °F 30.1 in East 2 mph 10 mph 93% 0.04 in 0.00 W/m2
02:25 45.7 °F 43.7 °F 30.1 in ENE 4 mph 8 mph 93% 0.04 in 0.00 W/m2
02:30 45.7 °F 43.7 °F 30.1 in ESE 10.1 mph 13 mph 93% 0.04 in 0.00 W/m2
02:35 45.7 °F 43.7 °F 30.1 in ESE 4.9 mph 7 mph 93% 0.04 in 0.00 W/m2
02:40 45.7 °F 43.7 °F 30.1 in ESE 6.9 mph 8 mph 93% 0.04 in 0.00 W/m2
02:45 45.7 °F 43.7 °F 30.1 in Calm   9 mph 93% 0.04 in 0.00 W/m2
02:50 45.7 °F 43.7 °F 30.1 in ESE 2 mph 13 mph 93% 0.04 in 0.00 W/m2
02:55 45.7 °F 43.7 °F 30.1 in ESE 4 mph 11 mph 93% 0.03 in 0.00 W/m2
03:00 45.7 °F 43.7 °F 30.1 in East 4 mph 14 mph 93% 0.04 in 0.00 W/m2
03:05 45.7 °F 43.7 °F 30.1 in ESE 2 mph 9 mph 93% 0.03 in 0.00 W/m2
03:10 45.7 °F 43.7 °F 30.1 in ESE 0.9 mph 5 mph 93% 0.02 in 0.00 W/m2
03:15 45.5 °F 43.5 °F 30.1 in East 0.9 mph 13 mph 93% 0.02 in 0.00 W/m2
03:20 45.5 °F 43.5 °F 30.1 in Calm   9 mph 93% 0.02 in 0.00 W/m2
03:25 45.7 °F 43.7 °F 30.1 in SE 4 mph 5 mph 93% 0.02 in 0.00 W/m2
03:30 45.5 °F 43.5 °F 30.1 in SE 2 mph 5 mph 93% 0.02 in 0.00 W/m2
03:35 45.5 °F 43.5 °F 30.1 in East 4.9 mph 8 mph 93% 0.02 in 0.00 W/m2
03:40 45.7 °F 43.7 °F 30.1 in ESE 2 mph 5 mph 93% 0.02 in 0.00 W/m2
03:45 45.5 °F 43.5 °F 30.1 in Calm   7 mph 93% 0.02 in 0.00 W/m2
03:50 45.7 °F 43.7 °F 30.1 in SE 6 mph 9 mph 93% 0.02 in 0.00 W/m2
03:55 45.5 °F 43.5 °F 30.1 in East 2.9 mph 8 mph 93% 0.02 in 0.00 W/m2
04:00 45.5 °F 43.5 °F 30.1 in NE 0.9 mph 7 mph 93% 0.01 in 0.00 W/m2
04:05 45.5 °F 43.5 °F 30.1 in East 0.9 mph 9 mph 93% 0.01 in 0.00 W/m2
04:10 45.5 °F 43.5 °F 30.1 in East 2 mph 7 mph 93% 0.01 in 0.00 W/m2
04:15 45.3 °F 43.3 °F 30.1 in East 4 mph 9 mph 93% 0.01 in 0.00 W/m2
04:20 45.3 °F 43.3 °F 30.1 in East 6.9 mph 8 mph 93% 0.01 in 0.00 W/m2
04:25 45.3 °F 43.3 °F 30.1 in Calm   9 mph 93% 0.02 in 0.00 W/m2
04:30 45.3 °F 43.3 °F 30.1 in ESE 6.9 mph 10 mph 93% 0.02 in 0.00 W/m2
04:35 45.3 °F 43.3 °F 30.1 in Calm   5 mph 93% 0.02 in 0.00 W/m2
04:40 45.3 °F 43.3 °F 30.1 in ESE 4 mph 9 mph 93% 0.01 in 0.00 W/m2
04:45 45.3 °F 43.3 °F 30.1 in ENE 2 mph 7 mph 93% 0.01 in 0.00 W/m2
04:50 45.3 °F 43.3 °F 30.1 in ESE 2.9 mph 11 mph 93% 0.01 in 0.00 W/m2
04:55 45.3 °F 43.3 °F 30.1 in ENE 4.9 mph 6 mph 93% 0.01 in 0.00 W/m2
05:00 45.3 °F 43.3 °F 30.1 in Calm   2 mph 93% 0.01 in 0.00 W/m2
05:05 45.3 °F 43.3 °F 30.1 in ESE 2 mph 10 mph 93% 0.01 in 0.00 W/m2
05:10 45.3 °F 43.3 °F 30.1 in East 4.9 mph 9 mph 93% 0.01 in 0.00 W/m2
05:15 45.3 °F 43.3 °F 30.1 in East 2 mph 9 mph 93% 0.01 in 0.00 W/m2
05:20 45.3 °F 43.3 °F 30.1 in East 8.1 mph 8 mph 93% 0.01 in 0.00 W/m2
05:25 45.3 °F 43.3 °F 30.1 in ENE 4.9 mph 10 mph 93% 0.01 in 0.00 W/m2
05:30 45.3 °F 43.3 °F 30.1 in East 4 mph 7 mph 93% 0.01 in 0.00 W/m2
05:35 45.1 °F 43.5 °F 30.1 in ESE 2 mph 9 mph 94% 0.01 in 0.00 W/m2
05:40 45.1 °F 43.5 °F 30.1 in SE 2 mph 8 mph 94% 0.01 in 0.00 W/m2
05:45 45.1 °F 43.5 °F 30.1 in ESE 0.9 mph 7 mph 94% 0.01 in 0.00 W/m2
05:50 45.1 °F 43.5 °F 30.1 in ESE 6 mph 8 mph 94% 0.01 in 0.00 W/m2
05:55 45 °F 43 °F 30.1 in ESE 6.9 mph 7 mph 93% 0.01 in 0.00 W/m2
06:00 45 °F 43 °F 30.1 in Calm   9 mph 93% 0.01 in 0.00 W/m2
06:05 45 °F 43 °F 30.1 in ENE 2.9 mph 4 mph 93% 0.01 in 0.00 W/m2
06:10 45 °F 43 °F 30.1 in East 6.9 mph 11 mph 93% 0.01 in 0.00 W/m2
06:15 44.8 °F 42.8 °F 30.1 in ESE 10.1 mph 10 mph 93% 0.01 in 0.00 W/m2
06:20 44.8 °F 43.2 °F 30.1 in East 4.9 mph 8 mph 94% 0.01 in 0.00 W/m2
06:25 44.8 °F 43.2 °F 30.1 in NE 2 mph 12 mph 94% 0 in 0.00 W/m2
06:30 44.6 °F 43 °F 30.1 in ESE 4 mph 8 mph 94% 0 in 0.00 W/m2
06:35 44.6 °F 43 °F 30.1 in SE 6 mph 9 mph 94% 0 in 0.00 W/m2
06:40 44.6 °F 43 °F 30.1 in ESE 4.9 mph 8 mph 94% 0 in 0.00 W/m2
06:45 44.6 °F 43 °F 30.1 in ENE 2.9 mph 9 mph 94% 0 in 0.00 W/m2
06:50 44.4 °F 42.8 °F 30.1 in ENE 4 mph 9 mph 94% 0.01 in 0.00 W/m2
06:55 44.4 °F 42.8 °F 30.1 in SE 4 mph 11 mph 94% 0.01 in 0.00 W/m2
07:00 44.4 °F 42.8 °F 30.1 in ESE 4 mph 10 mph 94% 0.01 in 0.00 W/m2
07:05 44.4 °F 42.8 °F 30.1 in ESE 4.9 mph 8 mph 94% 0.01 in 0.00 W/m2
07:10 44.4 °F 42.8 °F 30.1 in East 2.9 mph 10 mph 94% 0.01 in 0.00 W/m2
07:15 44.4 °F 42.8 °F 30.1 in ESE 4 mph 10 mph 94% 0.01 in 5.00 W/m2
07:20 44.8 °F 43.2 °F 30.1 in SE 2 mph 10 mph 94% 0.01 in 7.00 W/m2
07:25 45.1 °F 43.5 °F 30.1 in East 4 mph 8 mph 94% 0.01 in 9.00 W/m2
07:30 44.8 °F 43.2 °F 30.1 in SE 4.9 mph 10 mph 94% 0.01 in 11.00 W/m2
07:35 44.4 °F 42.8 °F 30.1 in East 4 mph 7 mph 94% 0.01 in 14.00 W/m2
07:40 44.6 °F 43 °F 30.1 in ENE 6.9 mph 10 mph 94% 0.01 in 16.00 W/m2
07:45 44.6 °F 43 °F 30.1 in ESE 2.9 mph 10 mph 94% 0.01 in 19.00 W/m2
07:50 44.6 °F 43 °F 30.1 in SE 6 mph 7 mph 94% 0 in 25.00 W/m2
07:55 44.6 °F 43 °F 30.1 in ESE 8.1 mph 11 mph 94% 0 in 32.00 W/m2
08:00 44.8 °F 43.2 °F 30.1 in Calm   8 mph 94% 0 in 35.00 W/m2
08:05 44.8 °F 43.2 °F 30.1 in ESE 9 mph 9 mph 94% 0 in 35.00 W/m2
08:10 44.8 °F 43.2 °F 30.1 in Calm   9 mph 94% 0 in 35.00 W/m2
08:15 44.8 °F 43.2 °F 30.1 in East 2 mph 3 mph 94% 0 in 35.00 W/m2
08:20 44.8 °F 43.2 °F 30.1 in SE 2.9 mph 8 mph 94% 0 in 39.00 W/m2
08:25 44.8 °F 43.2 °F 30.1 in SE 4 mph 8 mph 94% 0 in 40.00 W/m2
08:30 44.8 °F 43.2 °F 30.1 in East 0.9 mph 5 mph 94% 0 in 42.00 W/m2
08:35 45 °F 43.3 °F 30.1 in ESE 2 mph 7 mph 94% 0 in 42.00 W/m2
08:40 45 °F 43.3 °F 30.1 in ESE 2 mph 8 mph 94% 0 in 44.00 W/m2
08:45 45 °F 43.3 °F 30.1 in ESE 8.9 mph 9 mph 94% 0 in 44.00 W/m2
08:50 45 °F 43.3 °F 30.1 in SE 0.9 mph 7 mph 94% 0 in 40.00 W/m2
08:55 45 °F 43.3 °F 30.1 in ESE 6 mph 11 mph 94% 0 in 39.00 W/m2
09:00 45 °F 43.3 °F 30.1 in ESE 2.9 mph 7 mph 94% 0 in 42.00 W/m2
09:05 45.1 °F 43.5 °F 30.1 in East 4 mph 6 mph 94% 0 in 49.00 W/m2
09:10 45.1 °F 43.5 °F 30.1 in SE 0.9 mph 7 mph 94% 0 in 63.00 W/m2
09:15 45.1 °F 43.5 °F 30.1 in Calm   9 mph 94% 0 in 70.00 W/m2
09:20 45.1 °F 43.5 °F 30.1 in Calm   8 mph 94% 0 in 84.00 W/m2
09:25 45.3 °F 43.7 °F 30.1 in Calm   7 mph 94% 0 in 86.00 W/m2
09:30 45.3 °F 43.7 °F 30.1 in SE 2 mph 10 mph 94% 0 in 83.00 W/m2
09:35 45.3 °F 43.7 °F 30.1 in SE 2.9 mph 8 mph 94% 0 in 81.00 W/m2
09:40 45.5 °F 43.9 °F 30.1 in ESE 6 mph 7 mph 94% 0 in 79.00 W/m2
09:45 45.5 °F 43.5 °F 30.1 in ESE 2.9 mph 9 mph 93% 0 in 76.00 W/m2
09:50 45.7 °F 43.7 °F 30.1 in ESE 4 mph 7 mph 93% 0 in 76.00 W/m2
09:55 45.7 °F 44.1 °F 30.1 in ESE 4 mph 4 mph 94% 0 in 81.00 W/m2
10:00 45.9 °F 44.2 °F 30.1 in ESE 2 mph 7 mph 94% 0 in 88.00 W/m2
10:05 45.9 °F 43.9 °F 30.1 in ESE 2.9 mph 7 mph 93% 0 in 88.00 W/m2
10:10 46 °F 44.1 °F 30.1 in ENE 4.9 mph 5 mph 93% 0 in 83.00 W/m2
10:15 46 °F 44.1 °F 30.1 in Calm   5 mph 93% 0 in 74.00 W/m2
10:20 46.2 °F 44.2 °F 30.1 in ESE 4.9 mph 5 mph 93% 0 in 76.00 W/m2
10:25 46.2 °F 44.2 °F 30.1 in ESE 2.9 mph 9 mph 93% 0 in 83.00 W/m2
10:30 46.2 °F 44.2 °F 30.1 in ESE 2.9 mph 6 mph 93% 0 in 88.00 W/m2
10:35 46.4 °F 44.4 °F 30.1 in East 4.9 mph 5 mph 93% 0 in 90.00 W/m2
10:40 46.4 °F 44.4 °F 30.1 in SE 0.9 mph 6 mph 93% 0 in 84.00 W/m2
10:45 46.6 °F 44.6 °F 30.1 in ESE 2 mph 3 mph 93% 0 in 79.00 W/m2
10:50 46.6 °F 44.6 °F 30.1 in ENE 2.9 mph 7 mph 93% 0 in 86.00 W/m2
10:55 46.8 °F 44.8 °F 30.1 in Calm   5 mph 93% 0 in 95.00 W/m2
11:00 46.8 °F 44.8 °F 30.1 in Calm   7 mph 93% 0 in 98.00 W/m2
11:05 46.9 °F 45 °F 30.1 in ESE 2 mph 6 mph 93% 0 in 128.00 W/m2
11:10 47.1 °F 45.1 °F 30.1 in SSE 2.9 mph 6 mph 93% 0 in 139.00 W/m2
11:15 47.1 °F 45.1 °F 30.1 in ESE 0.9 mph 5 mph 93% 0 in 127.00 W/m2
11:20 47.3 °F 45.3 °F 30.1 in East 2.9 mph 8 mph 93% 0 in 118.00 W/m2
11:25 47.5 °F 45.5 °F 30.1 in ESE 4 mph 9 mph 93% 0 in 107.00 W/m2
11:30 47.5 °F 45.5 °F 30.1 in Calm   3 mph 93% 0 in 102.00 W/m2
11:35 47.7 °F 45.7 °F 30.1 in ESE 2.9 mph 8 mph 93% 0 in 98.00 W/m2
11:40 47.7 °F 45.7 °F 30.1 in ESE 2 mph 5 mph 93% 0 in 102.00 W/m2
11:45 47.7 °F 45.7 °F 30.1 in SE 4 mph 7 mph 93% 0 in 113.00 W/m2
11:50 47.8 °F 45.9 °F 30.1 in ESE 0.9 mph 4 mph 93% 0 in 120.00 W/m2
11:55 47.8 °F 45.7 °F 30.1 in ESE 2 mph 6 mph 92% 0 in 102.00 W/m2
12:00 47.8 °F 45.7 °F 30.1 in East 4 mph 5 mph 92% 0 in 97.00 W/m2
12:05 47.8 °F 45.7 °F 30.1 in ESE 2.9 mph 7 mph 92% 0 in 95.00 W/m2
12:10 47.8 °F 45.7 °F 30.1 in ESE 6.9 mph 7 mph 92% 0 in 95.00 W/m2
12:15 48 °F 45.9 °F 30.1 in Calm   10 mph 92% 0 in 105.00 W/m2
12:20 48 °F 45.9 °F 30.1 in Calm   7 mph 92% 0 in 88.00 W/m2
12:25 48.2 °F 46 °F 30.1 in SE 4 mph 4 mph 92% 0 in 79.00 W/m2
12:30 48.2 °F 46 °F 30.1 in Calm   7 mph 92% 0 in 74.00 W/m2
12:35 48.2 °F 46 °F 30.1 in ESE 0.9 mph 7 mph 92% 0 in 70.00 W/m2
12:40 48.4 °F 46.2 °F 30.1 in East 2 mph 5 mph 92% 0 in 67.00 W/m2
12:45 48.4 °F 46.2 °F 30.1 in ESE 4 mph 4 mph 92% 0 in 58.00 W/m2
12:50 48.6 °F 46.4 °F 30.1 in Calm   5 mph 92% 0 in 74.00 W/m2
12:55 48.6 °F 46.4 °F 30.1 in ESE 2 mph 7 mph 92% 0 in 83.00 W/m2
13:00 48.6 °F 46.4 °F 30.1 in ESE 0.9 mph 2 mph 92% 0 in 83.00 W/m2
13:05 48.7 °F 46.6 °F 30.1 in SE 0.9 mph 4 mph 92% 0 in 100.00 W/m2
13:10 48.9 °F 46.8 °F 30.1 in Calm   5 mph 92% 0 in 95.00 W/m2
13:15 48.9 °F 46.8 °F 30.1 in ESE 0.9 mph 4 mph 92% 0 in 93.00 W/m2
13:20 48.9 °F 46.8 °F 30.1 in East 2 mph 5 mph 92% 0 in 84.00 W/m2
13:25 49.3 °F 47.1 °F 30.1 in Calm   2 mph 92% 0 in 83.00 W/m2
13:30 49.3 °F 47.1 °F 30.1 in Calm   3 mph 92% 0 in 97.00 W/m2
13:35 49.1 °F 46.9 °F 30.1 in East 6 mph 6 mph 92% 0 in 111.00 W/m2
13:40 49.3 °F 47.1 °F 30.1 in SE 2 mph 4 mph 92% 0 in 111.00 W/m2
13:45 49.3 °F 47.1 °F 30.1 in ESE 2 mph 5 mph 92% 0 in 102.00 W/m2
13:50 49.3 °F 47.1 °F 30.1 in ESE 0.9 mph 5 mph 92% 0 in 98.00 W/m2
13:55 49.3 °F 47.1 °F 30.1 in SE 4 mph 7 mph 92% 0 in 95.00 W/m2
14:00 49.3 °F 47.1 °F 30.1 in ESE 2 mph 8 mph 92% 0 in 97.00 W/m2
14:05 49.3 °F 47.1 °F 30.1 in ESE 4 mph 9 mph 92% 0 in 90.00 W/m2
14:10 49.3 °F 47.1 °F 30.1 in ESE 6.9 mph 7 mph 92% 0 in 90.00 W/m2
14:15 49.3 °F 47.1 °F 30.1 in ESE 2.9 mph 8 mph 92% 0 in 90.00 W/m2
14:20 49.3 °F 47.1 °F 30.1 in ESE 4.9 mph 5 mph 92% 0 in 105.00 W/m2
14:25 49.5 °F 47.3 °F 30 in Calm   8 mph 92% 0 in 123.00 W/m2
14:30 49.5 °F 47.3 °F 30 in SE 4 mph 7 mph 92% 0 in 70.00 W/m2
14:35 49.5 °F 47.3 °F 30 in ESE 0.9 mph 8 mph 92% 0 in 44.00 W/m2
14:40 49.5 °F 47.3 °F 30 in ESE 2.9 mph 7 mph 92% 0 in 42.00 W/m2
14:45 49.5 °F 47.3 °F 30 in SE 0.9 mph 8 mph 92% 0 in 47.00 W/m2
14:50 49.6 °F 47.5 °F 30 in ESE 4.9 mph 6 mph 92% 0 in 44.00 W/m2
14:55 49.6 °F 47.5 °F 30 in SE 2.9 mph 3 mph 92% 0 in 44.00 W/m2
15:00 49.6 °F 47.5 °F 30 in ESE 0.9 mph 3 mph 92% 0 in 28.00 W/m2
15:05 49.6 °F 47.1 °F 30 in SE 2.9 mph 4 mph 91% 0 in 23.00 W/m2
15:10 49.6 °F 47.1 °F 30 in Calm   5 mph 91% 0 in 26.00 W/m2
15:15 49.6 °F 47.1 °F 30 in SE 2.9 mph 8 mph 91% 0 in 33.00 W/m2
15:20 49.6 °F 47.1 °F 30 in ESE 2 mph 6 mph 91% 0 in 26.00 W/m2
15:25 49.8 °F 47.3 °F 30 in SE 0.9 mph 2 mph 91% 0 in 26.00 W/m2
15:30 49.8 °F 47.3 °F 30 in Calm   2 mph 91% 0 in 28.00 W/m2
15:35 49.8 °F 47.3 °F 30 in ESE 0.9 mph 6 mph 91% 0 in 19.00 W/m2
15:40 49.8 °F 47.3 °F 30 in ESE 2.9 mph 5 mph 91% 0 in 21.00 W/m2
15:45 49.8 °F 47.3 °F 30 in Calm   5 mph 91% 0 in 14.00 W/m2
15:50 49.8 °F 47.3 °F 30 in ESE 0.9 mph 6 mph 91% 0 in 19.00 W/m2
15:55 49.8 °F 47.3 °F 30 in Calm   5 mph 91% 0 in 14.00 W/m2
16:00 49.8 °F 47.3 °F 30 in East 4.9 mph 6 mph 91% 0 in 7.00 W/m2
16:05 49.8 °F 47.3 °F 30 in Calm   5 mph 91% 0 in 7.00 W/m2
16:10 49.8 °F 47.3 °F 30 in ENE 4.9 mph 8 mph 91% 0 in 7.00 W/m2
16:15 49.8 °F 47.3 °F 30 in ESE 8.1 mph 10 mph 91% 0 in 5.00 W/m2
16:20 49.8 °F 47.3 °F 30 in NE 0.9 mph 7 mph 91% 0 in 0.00 W/m2
16:25 50 °F 47.5 °F 30 in Calm   4 mph 91% 0 in 0.00 W/m2
16:30 49.8 °F 47.3 °F 30 in ENE 0.9 mph 2 mph 91% 0 in 0.00 W/m2
16:35 49.8 °F 47.3 °F 30 in ENE 0.9 mph 6 mph 91% 0 in 0.00 W/m2
16:40 49.8 °F 47.3 °F 30 in East 4.9 mph 5 mph 91% 0 in 0.00 W/m2
16:45 49.8 °F 47.3 °F 30 in SE 2.9 mph 7 mph 91% 0 in 0.00 W/m2
16:50 49.8 °F 47.3 °F 30 in ESE 2 mph 3 mph 91% 0 in 0.00 W/m2
16:55 50 °F 47.5 °F 30 in Calm   3 mph 91% 0 in 0.00 W/m2
17:00 50 °F 47.5 °F 30 in SE 4 mph 4 mph 91% 0 in 0.00 W/m2
17:05 50 °F 47.5 °F 30 in SE 2.9 mph 4 mph 91% 0 in 0.00 W/m2
17:10 50 °F 47.5 °F 30 in SE 0.9 mph 4 mph 91% 0 in 0.00 W/m2
17:15 50 °F 47.5 °F 30 in SE 0.9 mph 7 mph 91% 0 in 0.00 W/m2
17:20 50.2 °F 47.7 °F 30 in ESE 4.9 mph 7 mph 91% 0 in 0.00 W/m2
17:25 50.2 °F 47.7 °F 30 in ESE 4 mph 7 mph 91% 0 in 0.00 W/m2
17:30 50 °F 47.5 °F 30 in ESE 0.9 mph 8 mph 91% 0 in 0.00 W/m2
17:35 50.2 °F 47.7 °F 30 in ESE 0.9 mph 2 mph 91% 0 in 0.00 W/m2
17:40 50 °F 47.5 °F 30 in Calm   3 mph 91% 0 in 0.00 W/m2
17:45 50 °F 47.5 °F 30 in East 0.9 mph 7 mph 91% 0 in 0.00 W/m2
17:50 50 °F 47.5 °F 30 in East 0.9 mph 2 mph 91% 0 in 0.00 W/m2
17:55 50 °F 47.5 °F 30 in Calm   2 mph 91% 0.01 in 0.00 W/m2
18:00 50 °F 47.5 °F 30 in East 2.9 mph 5 mph 91% 0.01 in 0.00 W/m2
18:05 50 °F 47.8 °F 30 in ESE 2 mph 5 mph 92% 0.01 in 0.00 W/m2
18:10 50 °F 47.8 °F 30 in ESE 2.9 mph 4 mph 92% 0.01 in 0.00 W/m2
18:15 50 °F 47.8 °F 30 in East 0.9 mph 5 mph 92% 0.01 in 0.00 W/m2
18:20 50 °F 47.8 °F 30 in ESE 0.9 mph 5 mph 92% 0.01 in 0.00 W/m2
18:25 50 °F 47.8 °F 30 in Calm   5 mph 92% 0.01 in 0.00 W/m2
18:30 49.8 °F 47.7 °F 30 in East 2 mph 3 mph 92% 0.01 in 0.00 W/m2
18:35 49.8 °F 47.7 °F 30 in ENE 0.9 mph 1 mph 92% 0.01 in 0.00 W/m2
18:40 49.8 °F 47.7 °F 30 in Calm   2 mph 92% 0.02 in 0.00 W/m2
18:45 49.8 °F 47.7 °F 30 in East 0.9 mph 2 mph 92% 0.02 in 0.00 W/m2
18:50 49.8 °F 47.7 °F 30 in East 2.9 mph 4 mph 92% 0.02 in 0.00 W/m2
18:55 49.8 °F 47.7 °F 30 in ESE 2 mph 7 mph 92% 0.01 in 0.00 W/m2
19:00 49.8 °F 47.7 °F 30 in Calm   4 mph 92% 0.01 in 0.00 W/m2
19:05 49.8 °F 47.8 °F 30 in Calm   4 mph 93% 0.01 in 0.00 W/m2
19:10 49.8 °F 47.8 °F 30 in NE 2 mph 8 mph 93% 0.01 in 0.00 W/m2
19:15 49.8 °F 47.8 °F 30 in ESE 4.9 mph 8 mph 93% 0.01 in 0.00 W/m2
19:20 49.8 °F 47.8 °F 30 in ESE 0.9 mph 4 mph 93% 0.01 in 0.00 W/m2
19:25 49.8 °F 47.8 °F 30 in ESE 2.9 mph 7 mph 93% 0.01 in 0.00 W/m2
19:30 49.6 °F 47.7 °F 30 in ESE 2 mph 8 mph 93% 0.01 in 0.00 W/m2
19:35 49.6 °F 47.7 °F 30 in SE 4 mph 9 mph 93% 0.01 in 0.00 W/m2
19:40 49.6 °F 47.7 °F 30 in SE 2 mph 8 mph 93% 0 in 0.00 W/m2
19:45 49.8 °F 47.8 °F 30 in SSE 4 mph 9 mph 93% 0 in 0.00 W/m2
19:50 49.8 °F 47.8 °F 30 in SSE 6 mph 9 mph 93% 0 in 0.00 W/m2
19:55 49.8 °F 47.8 °F 30 in SSE 6 mph 10 mph 93% 0 in 0.00 W/m2
20:00 49.8 °F 47.8 °F 30 in SE 6.9 mph 9 mph 93% 0 in 0.00 W/m2
20:05 49.8 °F 47.8 °F 30 in SE 6 mph 11 mph 93% 0 in 0.00 W/m2
20:10 49.8 °F 48.2 °F 30 in ESE 4.9 mph 8 mph 94% 0 in 0.00 W/m2
20:15 49.8 °F 48.2 °F 30 in SSE 6 mph 7 mph 94% 0 in 0.00 W/m2
20:20 49.8 °F 48.2 °F 30 in South 8.1 mph 10 mph 94% 0 in 0.00 W/m2
20:25 49.8 °F 48.2 °F 30 in SSE 4 mph 9 mph 94% 0 in 0.00 W/m2
20:30 50 °F 48.4 °F 29.9 in SSE 2 mph 11 mph 94% 0 in 0.00 W/m2
20:35 50 °F 48.4 °F 29.9 in SSE 4 mph 9 mph 94% 0 in 0.00 W/m2
20:40 50 °F 48.4 °F 29.9 in ESE 6 mph 9 mph 94% 0 in 0.00 W/m2
20:45 50 °F 48.4 °F 29.9 in SSW 6 mph 9 mph 94% 0 in 0.00 W/m2
20:50 50 °F 48.4 °F 29.9 in SSE 10.1 mph 11 mph 94% 0 in 0.00 W/m2
20:55 50 °F 48.4 °F 29.9 in SE 2.9 mph 9 mph 94% 0 in 0.00 W/m2
21:00 50.2 °F 48.6 °F 29.9 in Calm   7 mph 94% 0 in 0.00 W/m2
21:05 50.2 °F 48.6 °F 29.9 in ESE 6.9 mph 9 mph 94% 0 in 0.00 W/m2
21:10 50.2 °F 48.6 °F 29.9 in SSE 4.9 mph 10 mph 94% 0 in 0.00 W/m2
21:15 50.2 °F 48.6 °F 29.9 in SSE 2.9 mph 6 mph 94% 0 in 0.00 W/m2
21:20 50.2 °F 48.6 °F 29.9 in ESE 2 mph 8 mph 94% 0 in 0.00 W/m2
21:25 50.2 °F 48.6 °F 29.9 in ESE 6 mph 7 mph 94% 0 in 0.00 W/m2
21:30 50.2 °F 48.6 °F 29.9 in SE 2.9 mph 9 mph 94% 0 in 0.00 W/m2
21:35 50.2 °F 48.6 °F 29.9 in SE 6.9 mph 11 mph 94% 0 in 0.00 W/m2
21:40 50.2 °F 48.6 °F 29.9 in ESE 4 mph 8 mph 94% 0 in 0.00 W/m2
21:45 50.2 °F 48.6 °F 29.9 in ESE 6 mph 9 mph 94% 0 in 0.00 W/m2
21:50 50.2 °F 48.6 °F 29.9 in SE 4.9 mph 5 mph 94% 0 in 0.00 W/m2
21:55 50.2 °F 48.6 °F 29.9 in SE 4 mph 6 mph 94% 0.01 in 0.00 W/m2
22:00 50.2 °F 48.6 °F 29.9 in SE 4.9 mph 5 mph 94% 0.01 in 0.00 W/m2
22:05 50.2 °F 48.7 °F 29.9 in SE 2 mph 5 mph 95% 0.01 in 0.00 W/m2
22:10 50.2 °F 48.7 °F 29.9 in ESE 6.9 mph 8 mph 95% 0.01 in 0.00 W/m2
22:15 50.4 °F 48.9 °F 29.9 in SE 2.9 mph 8 mph 95% 0.01 in 0.00 W/m2
22:20 50.2 °F 48.6 °F 29.9 in SE 2 mph 6 mph 94% 0.02 in 0.00 W/m2
22:25 50.4 °F 48.9 °F 29.9 in SE 2.9 mph 6 mph 95% 0.02 in 0.00 W/m2
22:30 50.4 °F 48.9 °F 29.9 in ESE 4.9 mph 5 mph 95% 0.02 in 0.00 W/m2
22:35 50.4 °F 48.9 °F 29.9 in ESE 6 mph 7 mph 95% 0.02 in 0.00 W/m2
22:40 50.4 °F 48.9 °F 29.9 in SE 2.9 mph 3 mph 95% 0.02 in 0.00 W/m2
22:45 50.4 °F 48.9 °F 29.9 in SE 2.9 mph 6 mph 95% 0.02 in 0.00 W/m2
22:50 50.4 °F 48.9 °F 29.9 in ESE 0.9 mph 7 mph 95% 0.02 in 0.00 W/m2
22:55 50.4 °F 48.9 °F 29.9 in ESE 6.9 mph 7 mph 95% 0.02 in 0.00 W/m2
23:00 50.4 °F 48.9 °F 29.9 in ESE 2.9 mph 7 mph 95% 0.02 in 0.00 W/m2
23:05 50.4 °F 48.9 °F 29.9 in East 2.9 mph 5 mph 95% 0.02 in 0.00 W/m2
23:10 50.5 °F 49.1 °F 29.9 in ESE 2 mph 7 mph 95% 0.02 in 0.00 W/m2
23:15 50.5 °F 49.1 °F 29.9 in ESE 2 mph 7 mph 95% 0.02 in 0.00 W/m2
23:20 50.4 °F 48.9 °F 29.9 in ESE 4 mph 6 mph 95% 0.02 in 0.00 W/m2
23:25 50.4 °F 48.9 °F 29.8 in East 4 mph 7 mph 95% 0.02 in 0.00 W/m2
23:30 50.4 °F 48.9 °F 29.8 in ESE 2 mph 3 mph 95% 0.02 in 0.00 W/m2
23:35 50.5 °F 49.1 °F 29.8 in ENE 0.9 mph 7 mph 95% 0.02 in 0.00 W/m2
23:40 50.5 °F 49.1 °F 29.8 in East 2.9 mph 5 mph 95% 0.02 in 0.00 W/m2
23:45 50.5 °F 49.1 °F 29.8 in East 4 mph 7 mph 95% 0.02 in 0.00 W/m2
23:50 50.5 °F 49.1 °F 29.8 in ESE 0.9 mph 8 mph 95% 0.02 in 0.00 W/m2
23:55 50.5 °F 49.1 °F 29.8 in Calm   4 mph 95% 0.02 in 0.00 W/m2